sensor_id;sensor_type;location;lat;lon;timestamp;temperature;humidity
15749;DHT22;7976;52.526;13.326;2023-05-16T00:02:08;14.90;99.90
15749;DHT22;7976;52.526;13.326;2023-05-16T00:04:35;14.90;99.90
15749;DHT22;7976;52.526;13.326;2023-05-16T00:07:02;14.80;99.90
15749;DHT22;7976;52.526;13.326;2023-05-16T00:09:30;14.80;99.90
15749;DHT22;7976;52.526;13.326;2023-05-16T00:11:58;14.80;99.90
15749;DHT22;7976;52.526;13.326;2023-05-16T00:14:25;14.80;99.90
15749;DHT22;7976;52.526;13.326;2023-05-16T00:16:53;14.80;99.90
15749;DHT22;7976;52.526;13.326;2023-05-16T00:19:22;14.80;99.90
15749;DHT22;7976;52.526;13.326;2023-05-16T00:21:49;14.80;99.90
15749;DHT22;7976;52.526;13.326;2023-05-16T00:24:16;14.80;99.90
15749;DHT22;7976;52.526;13.326;2023-05-16T00:26:42;14.80;99.90
15749;DHT22;7976;52.526;13.326;2023-05-16T00:29:11;14.80;99.90
15749;DHT22;7976;52.526;13.326;2023-05-16T00:31:37;14.80;99.90
15749;DHT22;7976;52.526;13.326;2023-05-16T00:34:05;14.80;99.90
15749;DHT22;7976;52.526;13.326;2023-05-16T00:36:31;14.80;99.90
15749;DHT22;7976;52.526;13.326;2023-05-16T00:39:00;14.80;99.90
15749;DHT22;7976;52.526;13.326;2023-05-16T00:41:28;14.80;99.90
15749;DHT22;7976;52.526;13.326;2023-05-16T00:43:54;14.80;99.90
15749;DHT22;7976;52.526;13.326;2023-05-16T00:46:23;14.80;99.90
15749;DHT22;7976;52.526;13.326;2023-05-16T00:48:50;14.70;99.90
15749;DHT22;7976;52.526;13.326;2023-05-16T00:51:18;14.70;99.90
15749;DHT22;7976;52.526;13.326;2023-05-16T00:53:45;14.70;99.90
15749;DHT22;7976;52.526;13.326;2023-05-16T00:56:12;14.70;99.90
15749;DHT22;7976;52.526;13.326;2023-05-16T00:58:39;14.60;99.90
15749;DHT22;7976;52.526;13.326;2023-05-16T01:01:06;14.60;99.90
15749;DHT22;7976;52.526;13.326;2023-05-16T01:03:34;14.60;99.90
15749;DHT22;7976;52.526;13.326;2023-05-16T01:06:02;14.60;99.90
15749;DHT22;7976;52.526;13.326;2023-05-16T01:08:29;14.50;99.90
15749;DHT22;7976;52.526;13.326;2023-05-16T01:11:01;14.40;99.90
15749;DHT22;7976;52.526;13.326;2023-05-16T01:13:41;14.40;99.90
15749;DHT22;7976;52.526;13.326;2023-05-16T01:16:21;14.30;99.90
15749;DHT22;7976;52.526;13.326;2023-05-16T01:18:58;14.20;99.90
15749;DHT22;7976;52.526;13.326;2023-05-16T01:21:41;14.20;99.90
15749;DHT22;7976;52.526;13.326;2023-05-16T01:24:21;14.10;99.90
15749;DHT22;7976;52.526;13.326;2023-05-16T01:26:55;14.10;99.90
15749;DHT22;7976;52.526;13.326;2023-05-16T01:29:25;14.00;99.90
15749;DHT22;7976;52.526;13.326;2023-05-16T01:31:52;14.00;99.90
15749;DHT22;7976;52.526;13.326;2023-05-16T01:34:18;13.90;99.90
15749;DHT22;7976;52.526;13.326;2023-05-16T01:36:53;13.90;99.90
15749;DHT22;7976;52.526;13.326;2023-05-16T01:39:29;13.80;99.90
15749;DHT22;7976;52.526;13.326;2023-05-16T01:42:06;13.80;99.90
15749;DHT22;7976;52.526;13.326;2023-05-16T01:44:41;13.70;99.90
15749;DHT22;7976;52.526;13.326;2023-05-16T01:47:12;13.70;99.90
15749;DHT22;7976;52.526;13.326;2023-05-16T01:49:45;13.70;99.90
15749;DHT22;7976;52.526;13.326;2023-05-16T01:52:19;13.60;99.90
15749;DHT22;7976;52.526;13.326;2023-05-16T01:54:54;13.60;99.90
15749;DHT22;7976;52.526;13.326;2023-05-16T01:57:28;13.60;99.90
15749;DHT22;7976;52.526;13.326;2023-05-16T01:59:56;13.50;99.90
15749;DHT22;7976;52.526;13.326;2023-05-16T02:02:24;13.50;99.90
15749;DHT22;7976;52.526;13.326;2023-05-16T02:04:50;13.50;99.90
15749;DHT22;7976;52.526;13.326;2023-05-16T02:07:17;13.50;99.90
15749;DHT22;7976;52.526;13.326;2023-05-16T02:09:45;13.50;99.90
15749;DHT22;7976;52.526;13.326;2023-05-16T02:12:12;13.50;99.90
15749;DHT22;7976;52.526;13.326;2023-05-16T02:14:40;13.40;99.90
15749;DHT22;7976;52.526;13.326;2023-05-16T02:17:06;13.40;99.90
15749;DHT22;7976;52.526;13.326;2023-05-16T02:19:33;13.40;99.90
15749;DHT22;7976;52.526;13.326;2023-05-16T02:22:00;13.30;99.90
15749;DHT22;7976;52.526;13.326;2023-05-16T02:24:27;13.30;99.90
15749;DHT22;7976;52.526;13.326;2023-05-16T02:26:54;13.20;99.90
15749;DHT22;7976;52.526;13.326;2023-05-16T02:29:21;13.10;99.90
15749;DHT22;7976;52.526;13.326;2023-05-16T02:31:49;13.00;99.90
15749;DHT22;7976;52.526;13.326;2023-05-16T02:34:16;13.00;99.90
15749;DHT22;7976;52.526;13.326;2023-05-16T02:36:43;13.00;99.90
15749;DHT22;7976;52.526;13.326;2023-05-16T02:39:09;13.00;99.90
15749;DHT22;7976;52.526;13.326;2023-05-16T02:41:36;13.00;99.90
15749;DHT22;7976;52.526;13.326;2023-05-16T02:44:04;12.90;99.90
15749;DHT22;7976;52.526;13.326;2023-05-16T02:46:33;13.00;99.90
15749;DHT22;7976;52.526;13.326;2023-05-16T02:49:01;13.00;99.90
15749;DHT22;7976;52.526;13.326;2023-05-16T02:51:28;13.00;99.90
15749;DHT22;7976;52.526;13.326;2023-05-16T02:53:55;13.00;99.90
15749;DHT22;7976;52.526;13.326;2023-05-16T02:56:24;13.00;99.90
15749;DHT22;7976;52.526;13.326;2023-05-16T02:58:53;13.00;99.90
15749;DHT22;7976;52.526;13.326;2023-05-16T03:01:20;13.00;99.90
15749;DHT22;7976;52.526;13.326;2023-05-16T03:03:47;12.90;99.90
15749;DHT22;7976;52.526;13.326;2023-05-16T03:06:15;12.90;99.90
15749;DHT22;7976;52.526;13.326;2023-05-16T03:08:42;12.90;99.90
15749;DHT22;7976;52.526;13.326;2023-05-16T03:11:09;12.90;99.90
15749;DHT22;7976;52.526;13.326;2023-05-16T03:13:36;12.90;99.90
15749;DHT22;7976;52.526;13.326;2023-05-16T03:16:04;12.90;99.90
15749;DHT22;7976;52.526;13.326;2023-05-16T03:18:31;12.90;99.90
15749;DHT22;7976;52.526;13.326;2023-05-16T03:20:58;12.90;99.90
15749;DHT22;7976;52.526;13.326;2023-05-16T03:23:27;12.80;99.90
15749;DHT22;7976;52.526;13.326;2023-05-16T03:25:55;12.80;99.90
15749;DHT22;7976;52.526;13.326;2023-05-16T03:28:22;12.80;99.90
15749;DHT22;7976;52.526;13.326;2023-05-16T03:30:48;12.80;99.90
15749;DHT22;7976;52.526;13.326;2023-05-16T03:33:15;12.80;99.90
15749;DHT22;7976;52.526;13.326;2023-05-16T03:35:43;12.80;99.90
15749;DHT22;7976;52.526;13.326;2023-05-16T03:38:11;12.80;99.90
15749;DHT22;7976;52.526;13.326;2023-05-16T03:40:40;12.70;99.90
15749;DHT22;7976;52.526;13.326;2023-05-16T03:43:07;12.70;99.90
15749;DHT22;7976;52.526;13.326;2023-05-16T03:45:33;12.70;99.90
15749;DHT22;7976;52.526;13.326;2023-05-16T03:48:00;12.70;99.90
15749;DHT22;7976;52.526;13.326;2023-05-16T03:50:27;12.70;99.90
15749;DHT22;7976;52.526;13.326;2023-05-16T03:52:54;12.60;99.90
15749;DHT22;7976;52.526;13.326;2023-05-16T03:55:21;12.60;99.90
15749;DHT22;7976;52.526;13.326;2023-05-16T03:57:49;12.60;99.90
15749;DHT22;7976;52.526;13.326;2023-05-16T04:00:17;12.60;99.90
15749;DHT22;7976;52.526;13.326;2023-05-16T04:02:43;12.50;99.90
15749;DHT22;7976;52.526;13.326;2023-05-16T04:05:11;12.50;99.90
15749;DHT22;7976;52.526;13.326;2023-05-16T04:07:38;12.50;99.90
15749;DHT22;7976;52.526;13.326;2023-05-16T04:10:06;12.50;99.90
15749;DHT22;7976;52.526;13.326;2023-05-16T04:12:33;12.50;99.90
15749;DHT22;7976;52.526;13.326;2023-05-16T04:15:01;12.50;99.90
15749;DHT22;7976;52.526;13.326;2023-05-16T04:17:28;12.40;99.90
15749;DHT22;7976;52.526;13.326;2023-05-16T04:19:56;12.40;99.90
15749;DHT22;7976;52.526;13.326;2023-05-16T04:22:23;12.40;99.90
15749;DHT22;7976;52.526;13.326;2023-05-16T04:24:50;12.40;99.90
15749;DHT22;7976;52.526;13.326;2023-05-16T04:27:17;12.40;99.90
15749;DHT22;7976;52.526;13.326;2023-05-16T04:29:44;12.40;99.90
15749;DHT22;7976;52.526;13.326;2023-05-16T04:32:12;12.40;99.90
15749;DHT22;7976;52.526;13.326;2023-05-16T04:34:39;12.40;99.90
15749;DHT22;7976;52.526;13.326;2023-05-16T04:37:08;12.40;99.90
15749;DHT22;7976;52.526;13.326;2023-05-16T04:39:35;12.40;99.90
15749;DHT22;7976;52.526;13.326;2023-05-16T04:42:02;12.40;99.90
15749;DHT22;7976;52.526;13.326;2023-05-16T04:44:30;12.40;99.90
15749;DHT22;7976;52.526;13.326;2023-05-16T04:46:57;12.40;99.90
15749;DHT22;7976;52.526;13.326;2023-05-16T04:49:25;12.40;99.90
15749;DHT22;7976;52.526;13.326;2023-05-16T04:51:52;12.30;99.90
15749;DHT22;7976;52.526;13.326;2023-05-16T04:54:18;12.30;99.90
15749;DHT22;7976;52.526;13.326;2023-05-16T04:56:45;12.30;99.90
15749;DHT22;7976;52.526;13.326;2023-05-16T04:59:12;12.20;99.90
15749;DHT22;7976;52.526;13.326;2023-05-16T05:01:39;12.20;99.90
15749;DHT22;7976;52.526;13.326;2023-05-16T05:04:06;12.10;99.90
15749;DHT22;7976;52.526;13.326;2023-05-16T05:06:34;12.10;99.90
15749;DHT22;7976;52.526;13.326;2023-05-16T05:09:01;12.10;99.90
15749;DHT22;7976;52.526;13.326;2023-05-16T05:11:30;12.10;99.90
15749;DHT22;7976;52.526;13.326;2023-05-16T05:13:57;12.10;99.90
15749;DHT22;7976;52.526;13.326;2023-05-16T05:16:23;12.10;99.90
15749;DHT22;7976;52.526;13.326;2023-05-16T05:18:50;12.20;99.90
15749;DHT22;7976;52.526;13.326;2023-05-16T05:21:17;12.20;99.90
15749;DHT22;7976;52.526;13.326;2023-05-16T05:23:46;12.20;99.90
15749;DHT22;7976;52.526;13.326;2023-05-16T05:26:14;12.10;99.90
15749;DHT22;7976;52.526;13.326;2023-05-16T05:28:41;12.10;99.90
15749;DHT22;7976;52.526;13.326;2023-05-16T05:31:08;12.10;99.90
15749;DHT22;7976;52.526;13.326;2023-05-16T05:33:35;12.10;99.90
15749;DHT22;7976;52.526;13.326;2023-05-16T05:36:02;12.10;99.90
15749;DHT22;7976;52.526;13.326;2023-05-16T05:38:29;12.20;99.90
15749;DHT22;7976;52.526;13.326;2023-05-16T05:40:57;12.20;99.90
15749;DHT22;7976;52.526;13.326;2023-05-16T05:43:24;12.20;99.90
15749;DHT22;7976;52.526;13.326;2023-05-16T05:45:51;12.20;99.90
15749;DHT22;7976;52.526;13.326;2023-05-16T05:48:18;12.20;99.90
15749;DHT22;7976;52.526;13.326;2023-05-16T05:50:45;12.30;99.90
15749;DHT22;7976;52.526;13.326;2023-05-16T05:53:12;12.30;99.90
15749;DHT22;7976;52.526;13.326;2023-05-16T05:55:38;12.20;99.90
15749;DHT22;7976;52.526;13.326;2023-05-16T05:58:08;12.30;99.90
15749;DHT22;7976;52.526;13.326;2023-05-16T06:00:34;12.30;99.90
15749;DHT22;7976;52.526;13.326;2023-05-16T06:03:01;12.30;99.90
15749;DHT22;7976;52.526;13.326;2023-05-16T06:05:28;12.30;99.90
15749;DHT22;7976;52.526;13.326;2023-05-16T06:07:55;12.40;99.90
15749;DHT22;7976;52.526;13.326;2023-05-16T06:10:22;12.40;99.90
15749;DHT22;7976;52.526;13.326;2023-05-16T06:12:49;12.40;99.90
15749;DHT22;7976;52.526;13.326;2023-05-16T06:15:18;12.40;99.90
15749;DHT22;7976;52.526;13.326;2023-05-16T06:17:45;12.50;99.90
15749;DHT22;7976;52.526;13.326;2023-05-16T06:20:12;12.50;99.90
15749;DHT22;7976;52.526;13.326;2023-05-16T06:22:38;12.60;99.90
15749;DHT22;7976;52.526;13.326;2023-05-16T06:25:06;12.60;99.90
15749;DHT22;7976;52.526;13.326;2023-05-16T06:27:33;12.70;99.90
15749;DHT22;7976;52.526;13.326;2023-05-16T06:30:00;12.60;99.90
15749;DHT22;7976;52.526;13.326;2023-05-16T06:32:28;12.70;99.90
15749;DHT22;7976;52.526;13.326;2023-05-16T06:34:55;12.70;99.90
15749;DHT22;7976;52.526;13.326;2023-05-16T06:37:22;12.70;99.90
15749;DHT22;7976;52.526;13.326;2023-05-16T06:39:50;12.70;99.90
15749;DHT22;7976;52.526;13.326;2023-05-16T06:42:17;12.70;99.90
15749;DHT22;7976;52.526;13.326;2023-05-16T06:44:45;12.70;99.90
15749;DHT22;7976;52.526;13.326;2023-05-16T06:47:11;12.70;99.90
15749;DHT22;7976;52.526;13.326;2023-05-16T06:49:40;12.70;99.90
15749;DHT22;7976;52.526;13.326;2023-05-16T06:52:07;12.80;99.90
15749;DHT22;7976;52.526;13.326;2023-05-16T06:54:34;12.80;99.90
15749;DHT22;7976;52.526;13.326;2023-05-16T06:57:01;12.80;99.90
15749;DHT22;7976;52.526;13.326;2023-05-16T06:59:28;12.80;99.90
15749;DHT22;7976;52.526;13.326;2023-05-16T07:01:55;12.70;99.90
15749;DHT22;7976;52.526;13.326;2023-05-16T07:04:22;12.80;99.90
15749;DHT22;7976;52.526;13.326;2023-05-16T07:06:50;12.80;99.90
15749;DHT22;7976;52.526;13.326;2023-05-16T07:09:17;12.80;99.90
15749;DHT22;7976;52.526;13.326;2023-05-16T07:11:44;12.90;99.90
15749;DHT22;7976;52.526;13.326;2023-05-16T07:14:11;12.90;99.90
15749;DHT22;7976;52.526;13.326;2023-05-16T07:16:38;12.90;99.90
15749;DHT22;7976;52.526;13.326;2023-05-16T07:19:05;13.00;99.90
15749;DHT22;7976;52.526;13.326;2023-05-16T07:21:32;13.10;99.90
15749;DHT22;7976;52.526;13.326;2023-05-16T07:24:01;13.10;99.90
15749;DHT22;7976;52.526;13.326;2023-05-16T07:26:27;13.20;99.90
15749;DHT22;7976;52.526;13.326;2023-05-16T07:28:54;13.40;99.90
15749;DHT22;7976;52.526;13.326;2023-05-16T07:31:21;13.50;99.90
15749;DHT22;7976;52.526;13.326;2023-05-16T07:33:48;13.60;99.90
15749;DHT22;7976;52.526;13.326;2023-05-16T07:36:15;13.70;99.90
15749;DHT22;7976;52.526;13.326;2023-05-16T07:38:42;13.70;99.90
15749;DHT22;7976;52.526;13.326;2023-05-16T07:41:10;13.70;99.90
15749;DHT22;7976;52.526;13.326;2023-05-16T07:43:37;13.70;99.90
15749;DHT22;7976;52.526;13.326;2023-05-16T07:46:04;13.70;99.90
15749;DHT22;7976;52.526;13.326;2023-05-16T07:48:31;13.80;99.90
15749;DHT22;7976;52.526;13.326;2023-05-16T07:50:58;13.80;99.90
15749;DHT22;7976;52.526;13.326;2023-05-16T07:53:25;13.80;99.90
15749;DHT22;7976;52.526;13.326;2023-05-16T07:55:52;13.70;99.90
15749;DHT22;7976;52.526;13.326;2023-05-16T07:58:20;13.70;99.90
15749;DHT22;7976;52.526;13.326;2023-05-16T08:00:47;13.60;99.90
15749;DHT22;7976;52.526;13.326;2023-05-16T08:03:15;13.60;99.90
15749;DHT22;7976;52.526;13.326;2023-05-16T08:05:41;13.50;99.90
15749;DHT22;7976;52.526;13.326;2023-05-16T08:08:08;13.50;99.90
15749;DHT22;7976;52.526;13.326;2023-05-16T08:10:35;13.50;99.90
15749;DHT22;7976;52.526;13.326;2023-05-16T08:13:02;13.50;99.90
15749;DHT22;7976;52.526;13.326;2023-05-16T08:15:30;13.40;99.90
15749;DHT22;7976;52.526;13.326;2023-05-16T08:17:58;13.40;99.90
15749;DHT22;7976;52.526;13.326;2023-05-16T08:20:25;13.40;99.90
15749;DHT22;7976;52.526;13.326;2023-05-16T08:22:53;13.40;99.90
15749;DHT22;7976;52.526;13.326;2023-05-16T08:25:20;13.40;99.90
15749;DHT22;7976;52.526;13.326;2023-05-16T08:27:48;13.40;99.90
15749;DHT22;7976;52.526;13.326;2023-05-16T08:30:15;13.40;99.90
15749;DHT22;7976;52.526;13.326;2023-05-16T08:32:44;13.40;99.90
15749;DHT22;7976;52.526;13.326;2023-05-16T08:35:11;13.50;99.90
15749;DHT22;7976;52.526;13.326;2023-05-16T08:37:38;13.40;99.90
15749;DHT22;7976;52.526;13.326;2023-05-16T08:40:06;13.40;99.90
15749;DHT22;7976;52.526;13.326;2023-05-16T08:42:35;13.40;99.90
15749;DHT22;7976;52.526;13.326;2023-05-16T08:45:03;13.40;99.90
15749;DHT22;7976;52.526;13.326;2023-05-16T08:47:32;13.50;99.90
15749;DHT22;7976;52.526;13.326;2023-05-16T08:50:03;13.50;99.90
15749;DHT22;7976;52.526;13.326;2023-05-16T08:52:33;13.50;99.90
15749;DHT22;7976;52.526;13.326;2023-05-16T08:55:05;13.50;99.90
15749;DHT22;7976;52.526;13.326;2023-05-16T08:57:36;13.50;99.90
15749;DHT22;7976;52.526;13.326;2023-05-16T09:00:07;13.60;99.90
15749;DHT22;7976;52.526;13.326;2023-05-16T09:02:37;13.70;99.90
15749;DHT22;7976;52.526;13.326;2023-05-16T09:05:08;13.90;99.90
15749;DHT22;7976;52.526;13.326;2023-05-16T09:07:37;14.10;99.90
15749;DHT22;7976;52.526;13.326;2023-05-16T09:10:05;14.30;99.90
15749;DHT22;7976;52.526;13.326;2023-05-16T09:12:33;14.20;99.90
15749;DHT22;7976;52.526;13.326;2023-05-16T09:15:01;14.20;99.90
15749;DHT22;7976;52.526;13.326;2023-05-16T09:17:34;14.10;99.90
15749;DHT22;7976;52.526;13.326;2023-05-16T09:20:09;14.10;99.90
15749;DHT22;7976;52.526;13.326;2023-05-16T09:22:39;14.10;99.90
15749;DHT22;7976;52.526;13.326;2023-05-16T09:25:16;14.10;99.90
15749;DHT22;7976;52.526;13.326;2023-05-16T09:27:44;14.00;99.90
15749;DHT22;7976;52.526;13.326;2023-05-16T09:30:13;14.00;99.90
15749;DHT22;7976;52.526;13.326;2023-05-16T09:32:42;14.00;99.90
15749;DHT22;7976;52.526;13.326;2023-05-16T09:35:14;14.10;99.90
15749;DHT22;7976;52.526;13.326;2023-05-16T09:37:43;14.20;99.90
15749;DHT22;7976;52.526;13.326;2023-05-16T09:40:12;14.30;99.90
15749;DHT22;7976;52.526;13.326;2023-05-16T09:42:39;14.40;99.90
15749;DHT22;7976;52.526;13.326;2023-05-16T09:45:07;14.40;99.90
15749;DHT22;7976;52.526;13.326;2023-05-16T09:47:37;14.40;99.90
15749;DHT22;7976;52.526;13.326;2023-05-16T09:50:12;14.40;99.90
15749;DHT22;7976;52.526;13.326;2023-05-16T09:52:40;14.30;99.90
15749;DHT22;7976;52.526;13.326;2023-05-16T09:55:08;14.20;99.90
15749;DHT22;7976;52.526;13.326;2023-05-16T09:57:38;14.20;99.90
15749;DHT22;7976;52.526;13.326;2023-05-16T10:00:09;14.20;99.90
15749;DHT22;7976;52.526;13.326;2023-05-16T10:02:38;14.20;99.90
15749;DHT22;7976;52.526;13.326;2023-05-16T10:05:05;14.20;99.90
15749;DHT22;7976;52.526;13.326;2023-05-16T10:07:34;14.10;99.90
15749;DHT22;7976;52.526;13.326;2023-05-16T10:10:05;14.00;99.90
15749;DHT22;7976;52.526;13.326;2023-05-16T10:12:34;13.90;99.90
15749;DHT22;7976;52.526;13.326;2023-05-16T10:15:04;13.90;99.90
15749;DHT22;7976;52.526;13.326;2023-05-16T10:17:34;13.90;99.90
15749;DHT22;7976;52.526;13.326;2023-05-16T10:20:06;13.90;99.90
15749;DHT22;7976;52.526;13.326;2023-05-16T10:22:42;13.90;99.90
15749;DHT22;7976;52.526;13.326;2023-05-16T10:25:16;13.80;99.90
15749;DHT22;7976;52.526;13.326;2023-05-16T10:27:51;13.90;99.90
15749;DHT22;7976;52.526;13.326;2023-05-16T10:30:18;14.30;99.90
15749;DHT22;7976;52.526;13.326;2023-05-16T10:32:46;14.60;99.90
15749;DHT22;7976;52.526;13.326;2023-05-16T10:35:17;14.70;99.90
15749;DHT22;7976;52.526;13.326;2023-05-16T10:37:47;14.70;99.90
15749;DHT22;7976;52.526;13.326;2023-05-16T10:40:15;14.60;99.90
15749;DHT22;7976;52.526;13.326;2023-05-16T10:42:46;14.40;99.90
15749;DHT22;7976;52.526;13.326;2023-05-16T10:45:21;14.30;99.90
15749;DHT22;7976;52.526;13.326;2023-05-16T10:47:53;14.20;99.90
15749;DHT22;7976;52.526;13.326;2023-05-16T10:50:33;14.00;99.90
15749;DHT22;7976;52.526;13.326;2023-05-16T10:53:13;13.90;99.90
15749;DHT22;7976;52.526;13.326;2023-05-16T10:55:48;13.90;99.90
15749;DHT22;7976;52.526;13.326;2023-05-16T10:58:23;13.90;99.90
15749;DHT22;7976;52.526;13.326;2023-05-16T11:01:21;13.90;99.90
15749;DHT22;7976;52.526;13.326;2023-05-16T11:04:04;14.10;99.90
15749;DHT22;7976;52.526;13.326;2023-05-16T11:06:33;14.50;99.90
15749;DHT22;7976;52.526;13.326;2023-05-16T11:09:06;14.80;99.90
15749;DHT22;7976;52.526;13.326;2023-05-16T11:11:44;15.20;99.90
15749;DHT22;7976;52.526;13.326;2023-05-16T11:14:21;15.40;99.90
15749;DHT22;7976;52.526;13.326;2023-05-16T11:16:49;15.60;99.90
15749;DHT22;7976;52.526;13.326;2023-05-16T11:19:33;15.70;99.90
15749;DHT22;7976;52.526;13.326;2023-05-16T11:22:22;15.70;99.90
15749;DHT22;7976;52.526;13.326;2023-05-16T11:24:57;15.60;99.90
15749;DHT22;7976;52.526;13.326;2023-05-16T11:27:27;15.30;99.90
15749;DHT22;7976;52.526;13.326;2023-05-16T11:29:58;15.20;99.90
15749;DHT22;7976;52.526;13.326;2023-05-16T11:32:26;15.10;99.90
15749;DHT22;7976;52.526;13.326;2023-05-16T11:34:53;15.10;99.90
15749;DHT22;7976;52.526;13.326;2023-05-16T11:37:20;15.00;99.90
15749;DHT22;7976;52.526;13.326;2023-05-16T11:39:47;15.10;99.90
15749;DHT22;7976;52.526;13.326;2023-05-16T11:42:15;15.40;99.90
15749;DHT22;7976;52.526;13.326;2023-05-16T11:44:43;15.80;99.90
15749;DHT22;7976;52.526;13.326;2023-05-16T11:47:10;16.30;99.90
15749;DHT22;7976;52.526;13.326;2023-05-16T11:49:37;16.70;99.90
15749;DHT22;7976;52.526;13.326;2023-05-16T11:52:07;16.90;99.90
15749;DHT22;7976;52.526;13.326;2023-05-16T11:54:35;16.90;99.90
15749;DHT22;7976;52.526;13.326;2023-05-16T11:57:03;16.80;99.90
15749;DHT22;7976;52.526;13.326;2023-05-16T11:59:31;16.70;99.90
15749;DHT22;7976;52.526;13.326;2023-05-16T12:02:02;16.60;99.90
15749;DHT22;7976;52.526;13.326;2023-05-16T12:04:30;16.50;99.90
15749;DHT22;7976;52.526;13.326;2023-05-16T12:06:59;16.40;99.90
15749;DHT22;7976;52.526;13.326;2023-05-16T12:09:27;16.30;99.90
15749;DHT22;7976;52.526;13.326;2023-05-16T12:11:54;16.30;99.90
15749;DHT22;7976;52.526;13.326;2023-05-16T12:14:21;16.20;99.90
15749;DHT22;7976;52.526;13.326;2023-05-16T12:16:51;16.20;99.90
15749;DHT22;7976;52.526;13.326;2023-05-16T12:19:18;16.30;99.90
15749;DHT22;7976;52.526;13.326;2023-05-16T12:21:46;16.30;99.90
15749;DHT22;7976;52.526;13.326;2023-05-16T12:24:13;16.40;99.90
15749;DHT22;7976;52.526;13.326;2023-05-16T12:26:41;16.60;99.90
15749;DHT22;7976;52.526;13.326;2023-05-16T12:29:09;16.80;99.90
15749;DHT22;7976;52.526;13.326;2023-05-16T12:31:38;16.90;99.90
15749;DHT22;7976;52.526;13.326;2023-05-16T12:34:16;17.00;99.90
15749;DHT22;7976;52.526;13.326;2023-05-16T12:36:50;17.00;99.90
15749;DHT22;7976;52.526;13.326;2023-05-16T12:39:18;17.00;99.90
15749;DHT22;7976;52.526;13.326;2023-05-16T12:41:46;17.10;99.90
15749;DHT22;7976;52.526;13.326;2023-05-16T12:44:13;17.40;99.90
15749;DHT22;7976;52.526;13.326;2023-05-16T12:46:43;17.50;99.90
15749;DHT22;7976;52.526;13.326;2023-05-16T12:49:11;17.50;99.90
15749;DHT22;7976;52.526;13.326;2023-05-16T12:51:46;17.40;99.90
15749;DHT22;7976;52.526;13.326;2023-05-16T12:54:14;17.40;99.90
15749;DHT22;7976;52.526;13.326;2023-05-16T12:56:41;17.20;99.90
15749;DHT22;7976;52.526;13.326;2023-05-16T12:59:09;17.00;99.90
15749;DHT22;7976;52.526;13.326;2023-05-16T13:01:37;16.80;99.90
15749;DHT22;7976;52.526;13.326;2023-05-16T13:04:05;16.60;99.90
15749;DHT22;7976;52.526;13.326;2023-05-16T13:06:32;16.50;99.90
15749;DHT22;7976;52.526;13.326;2023-05-16T13:09:01;16.50;99.90
15749;DHT22;7976;52.526;13.326;2023-05-16T13:11:29;16.40;99.90
15749;DHT22;7976;52.526;13.326;2023-05-16T13:13:56;16.50;99.90
15749;DHT22;7976;52.526;13.326;2023-05-16T13:16:23;16.60;99.90
15749;DHT22;7976;52.526;13.326;2023-05-16T13:18:50;16.70;99.90
15749;DHT22;7976;52.526;13.326;2023-05-16T13:21:17;16.80;99.90
15749;DHT22;7976;52.526;13.326;2023-05-16T13:23:44;17.00;99.90
15749;DHT22;7976;52.526;13.326;2023-05-16T13:26:12;17.00;99.90
15749;DHT22;7976;52.526;13.326;2023-05-16T13:28:39;17.00;99.90
15749;DHT22;7976;52.526;13.326;2023-05-16T13:31:06;17.10;99.90
15749;DHT22;7976;52.526;13.326;2023-05-16T13:33:34;17.30;99.90
15749;DHT22;7976;52.526;13.326;2023-05-16T13:36:02;17.30;99.90
15749;DHT22;7976;52.526;13.326;2023-05-16T13:38:29;17.30;99.90
15749;DHT22;7976;52.526;13.326;2023-05-16T13:40:56;17.40;99.90
15749;DHT22;7976;52.526;13.326;2023-05-16T13:43:25;17.60;99.90
15749;DHT22;7976;52.526;13.326;2023-05-16T13:45:51;17.80;99.90
15749;DHT22;7976;52.526;13.326;2023-05-16T13:48:18;17.90;99.90
15749;DHT22;7976;52.526;13.326;2023-05-16T13:50:45;17.80;99.90
15749;DHT22;7976;52.526;13.326;2023-05-16T13:53:12;17.80;99.90
15749;DHT22;7976;52.526;13.326;2023-05-16T13:55:39;17.80;99.90
15749;DHT22;7976;52.526;13.326;2023-05-16T13:58:06;17.90;99.90
15749;DHT22;7976;52.526;13.326;2023-05-16T14:00:34;17.90;99.90
15749;DHT22;7976;52.526;13.326;2023-05-16T14:03:00;17.90;99.90
15749;DHT22;7976;52.526;13.326;2023-05-16T14:05:28;17.90;99.90
15749;DHT22;7976;52.526;13.326;2023-05-16T14:07:54;17.90;99.90
15749;DHT22;7976;52.526;13.326;2023-05-16T14:10:22;17.80;99.90
15749;DHT22;7976;52.526;13.326;2023-05-16T14:12:49;17.80;99.90
15749;DHT22;7976;52.526;13.326;2023-05-16T14:15:16;17.80;99.90
15749;DHT22;7976;52.526;13.326;2023-05-16T14:17:44;18.00;99.90
15749;DHT22;7976;52.526;13.326;2023-05-16T14:20:12;18.20;99.90
15749;DHT22;7976;52.526;13.326;2023-05-16T14:22:39;18.20;99.90
15749;DHT22;7976;52.526;13.326;2023-05-16T14:25:07;18.20;99.90
15749;DHT22;7976;52.526;13.326;2023-05-16T14:27:34;18.20;99.90
15749;DHT22;7976;52.526;13.326;2023-05-16T14:30:01;18.30;99.90
15749;DHT22;7976;52.526;13.326;2023-05-16T14:32:28;18.40;99.90
15749;DHT22;7976;52.526;13.326;2023-05-16T14:34:56;18.40;99.20
15749;DHT22;7976;52.526;13.326;2023-05-16T14:37:23;18.40;98.10
15749;DHT22;7976;52.526;13.326;2023-05-16T14:39:50;18.40;98.40
15749;DHT22;7976;52.526;13.326;2023-05-16T14:42:17;18.30;98.10
15749;DHT22;7976;52.526;13.326;2023-05-16T14:44:44;18.30;98.50
15749;DHT22;7976;52.526;13.326;2023-05-16T14:47:11;18.20;98.00
15749;DHT22;7976;52.526;13.326;2023-05-16T14:49:38;18.10;98.00
15749;DHT22;7976;52.526;13.326;2023-05-16T14:52:07;17.90;97.70
15749;DHT22;7976;52.526;13.326;2023-05-16T14:54:34;17.80;98.00
15749;DHT22;7976;52.526;13.326;2023-05-16T14:57:01;17.80;98.10
15749;DHT22;7976;52.526;13.326;2023-05-16T14:59:29;17.70;97.80
15749;DHT22;7976;52.526;13.326;2023-05-16T15:01:56;17.70;97.90
15749;DHT22;7976;52.526;13.326;2023-05-16T15:04:23;17.90;97.60
15749;DHT22;7976;52.526;13.326;2023-05-16T15:06:50;18.00;97.00
15749;DHT22;7976;52.526;13.326;2023-05-16T15:09:18;18.10;97.30
15749;DHT22;7976;52.526;13.326;2023-05-16T15:11:45;18.00;96.80
15749;DHT22;7976;52.526;13.326;2023-05-16T15:14:12;18.00;96.90
15749;DHT22;7976;52.526;13.326;2023-05-16T15:16:39;18.10;96.90
15749;DHT22;7976;52.526;13.326;2023-05-16T15:19:06;18.10;96.80
15749;DHT22;7976;52.526;13.326;2023-05-16T15:21:33;18.10;96.30
15749;DHT22;7976;52.526;13.326;2023-05-16T15:24:00;18.10;95.80
15749;DHT22;7976;52.526;13.326;2023-05-16T15:26:28;18.10;95.30
15749;DHT22;7976;52.526;13.326;2023-05-16T15:28:56;18.10;95.30
15749;DHT22;7976;52.526;13.326;2023-05-16T15:31:23;18.10;95.30
15749;DHT22;7976;52.526;13.326;2023-05-16T15:33:50;18.10;95.20
15749;DHT22;7976;52.526;13.326;2023-05-16T15:36:17;18.20;94.70
15749;DHT22;7976;52.526;13.326;2023-05-16T15:38:44;18.30;94.70